createdAt,value
2022-11-08T00:03:55.415Z,55.70
2022-11-08T00:09:15.650Z,55.50
2022-11-08T00:14:18.122Z,57.10
2022-11-08T00:19:20.107Z,58.50
2022-11-08T00:24:21.862Z,60.30
2022-11-08T00:29:23.838Z,56.50
2022-11-08T00:34:25.733Z,55.60
2022-11-08T00:39:27.612Z,56.30
2022-11-08T00:44:29.492Z,53.20
2022-11-08T00:49:31.776Z,52.30
2022-11-08T00:54:33.960Z,57.70
2022-11-08T00:59:35.835Z,47.50
2022-11-08T01:04:37.609Z,54.30
2022-11-08T01:09:39.334Z,51.30
2022-11-08T01:14:41.161Z,51.60
2022-11-08T01:19:42.933Z,53.70
2022-11-08T01:24:44.707Z,47.30
2022-11-08T01:29:46.486Z,50.70
2022-11-08T01:34:48.263Z,44.10
2022-11-08T01:39:50.143Z,51.00
2022-11-08T01:45:02.563Z,52.60
2022-11-08T01:50:16.767Z,46.80
2022-11-08T01:55:32.201Z,50.10
2022-11-08T02:00:37.576Z,51.00
2022-11-08T02:05:40.087Z,48.10
2022-11-08T02:10:44.820Z,45.70
2022-11-08T02:15:47.122Z,46.30
2022-11-08T02:21:01.174Z,46.80
2022-11-08T02:26:03.049Z,45.00
2022-11-08T02:31:04.865Z,40.40
2022-11-08T02:36:09.467Z,44.90
2022-11-08T02:41:11.479Z,45.20
2022-11-08T02:46:13.423Z,41.90
2022-11-08T02:51:15.504Z,41.50
2022-11-08T02:56:17.310Z,41.20
2022-11-08T03:01:19.319Z,41.20
2022-11-08T03:06:21.241Z,38.10
2022-11-08T03:11:23.209Z,45.70
2022-11-08T03:16:25.095Z,42.00
2022-11-08T03:21:26.875Z,40.10
2022-11-08T03:26:28.647Z,40.80
2022-11-08T03:31:30.521Z,40.60
2022-11-08T03:36:32.298Z,42.70
2022-11-08T03:41:34.177Z,40.30
2022-11-08T03:46:36.157Z,43.90
2022-11-08T03:51:38.031Z,43.90
2022-11-08T03:56:39.820Z,45.40
2022-11-08T04:01:41.720Z,48.40
2022-11-08T04:06:43.973Z,47.40
2022-11-08T04:12:04.892Z,39.00
2022-11-08T04:17:06.776Z,40.90
2022-11-08T04:22:11.333Z,37.20
2022-11-08T04:27:13.190Z,41.60
2022-11-08T04:32:14.973Z,41.10
2022-11-08T04:37:16.790Z,43.10
2022-11-08T04:42:18.627Z,42.00
2022-11-08T04:47:20.496Z,42.50
2022-11-08T04:52:22.367Z,40.00
2022-11-08T04:57:24.150Z,49.10
2022-11-08T05:02:26.081Z,42.20
2022-11-08T05:07:29.345Z,47.00
2022-11-08T05:12:31.216Z,39.80
2022-11-08T05:17:33.094Z,44.00
2022-11-08T05:22:53.705Z,46.80
2022-11-08T05:27:55.504Z,49.40
2022-11-08T05:32:57.364Z,55.10
2022-11-08T05:37:59.238Z,52.70
2022-11-08T05:43:01.234Z,49.60
2022-11-08T05:48:14.540Z,57.70
2022-11-08T05:53:16.983Z,51.20
2022-11-08T05:58:19.094Z,49.60
2022-11-08T06:03:23.762Z,47.10
2022-11-08T06:08:25.974Z,50.80
2022-11-08T06:13:28.088Z,61.20
2022-11-08T06:18:31.671Z,80.50
2022-11-08T06:23:34.152Z,62.40
2022-11-08T06:28:36.747Z,56.30
2022-11-08T06:33:38.878Z,64.50
2022-11-08T06:38:40.713Z,54.70
2022-11-08T06:43:42.462Z,51.80
2022-11-08T06:48:44.670Z,51.60
2022-11-08T06:53:46.547Z,50.90
2022-11-08T06:58:48.323Z,50.00
2022-11-08T07:03:50.097Z,40.60
2022-11-08T07:08:51.918Z,48.50
2022-11-08T07:13:53.696Z,43.30
2022-11-08T07:18:55.832Z,44.20
2022-11-08T07:23:57.910Z,53.10
2022-11-08T07:28:59.788Z,48.90
2022-11-08T07:34:01.608Z,42.50
2022-11-08T07:39:06.619Z,44.40
2022-11-08T07:44:08.910Z,44.00
2022-11-08T07:49:20.820Z,44.00
2022-11-08T07:54:22.691Z,41.20
2022-11-08T07:59:24.683Z,39.80
2022-11-08T08:04:28.995Z,41.30
2022-11-08T08:09:31.093Z,35.50
2022-11-08T08:14:32.786Z,35.50
2022-11-08T08:19:34.755Z,36.60
2022-11-08T08:24:36.623Z,31.20
2022-11-08T08:29:38.494Z,35.70
2022-11-08T08:34:40.269Z,31.90
2022-11-08T08:39:42.155Z,33.60
2022-11-08T08:44:43.916Z,32.80
2022-11-08T08:49:45.639Z,30.70
2022-11-08T08:54:47.404Z,36.20
2022-11-08T09:05:13.060Z,27.90
2022-11-08T09:10:15.222Z,25.40
2022-11-08T09:15:17.650Z,29.70
2022-11-08T09:20:19.590Z,24.90
2022-11-08T09:25:21.580Z,24.60
2022-11-08T09:30:23.497Z,22.70
2022-11-08T09:35:25.575Z,24.00
2022-11-08T09:40:40.890Z,26.70
2022-11-08T09:45:48.127Z,20.50
2022-11-08T09:50:52.368Z,21.10
2022-11-08T09:56:01.630Z,18.30
2022-11-08T10:01:04.615Z,19.90
2022-11-08T10:06:21.156Z,19.10
2022-11-08T10:11:57.931Z,21.50
2022-11-08T10:16:59.703Z,14.00
2022-11-08T10:22:09.706Z,17.50
2022-11-08T10:27:22.504Z,13.60
2022-11-08T10:32:25.395Z,20.10
2022-11-08T10:37:29.743Z,11.40
2022-11-08T10:42:46.776Z,15.60
2022-11-08T10:47:48.658Z,13.90
2022-11-08T10:52:58.616Z,12.10
2022-11-08T10:58:00.585Z,13.00
2022-11-08T11:03:29.016Z,12.00
2022-11-08T11:08:32.305Z,14.90
2022-11-08T11:13:34.188Z,13.70
2022-11-08T11:18:47.938Z,12.80
2022-11-08T11:23:52.995Z,10.10
2022-11-08T11:29:07.812Z,10.20
2022-11-08T11:34:18.767Z,15.20
2022-11-08T11:39:32.932Z,11.00
2022-11-08T11:44:41.610Z,11.00
2022-11-08T11:49:45.491Z,17.00
2022-11-08T11:54:49.417Z,12.70
2022-11-08T12:00:14.940Z,14.90
2022-11-08T12:05:22.767Z,12.90
2022-11-08T12:10:29.555Z,13.60
2022-11-08T12:16:06.776Z,14.80
2022-11-08T12:21:22.227Z,7.40
2022-11-08T12:26:34.338Z,15.70
2022-11-08T12:31:52.740Z,14.00
2022-11-08T12:37:10.084Z,13.90
2022-11-08T12:42:22.507Z,9.80
2022-11-08T12:47:51.661Z,15.20
2022-11-08T12:53:12.035Z,8.80
2022-11-08T12:58:44.420Z,8.80
2022-11-08T13:03:52.240Z,9.10
2022-11-08T13:09:15.009Z,10.10
2022-11-08T13:14:18.932Z,11.40
2022-11-08T13:19:49.892Z,12.50
2022-11-08T13:24:51.878Z,12.10
2022-11-08T13:29:58.439Z,13.80
2022-11-08T13:35:14.012Z,14.30
2022-11-08T13:40:33.138Z,15.80
2022-11-08T13:45:35.428Z,16.10
2022-11-08T13:51:10.955Z,16.70
2022-11-08T13:56:12.771Z,20.20
2022-11-08T14:01:23.570Z,16.90
2022-11-08T14:06:39.134Z,17.20
2022-11-08T14:11:43.693Z,16.30
2022-11-08T14:17:17.726Z,16.00
2022-11-08T14:22:29.217Z,16.20
2022-11-08T14:27:39.947Z,21.60
2022-11-08T14:32:41.889Z,19.00
2022-11-08T14:37:44.187Z,18.00
2022-11-08T14:42:46.058Z,19.70
2022-11-08T14:47:54.289Z,22.60
2022-11-08T14:52:56.772Z,26.80
2022-11-08T14:58:15.576Z,30.00
2022-11-08T15:03:20.146Z,28.70
2022-11-08T15:08:36.300Z,28.30
2022-11-08T15:13:50.572Z,30.80
2022-11-08T15:18:52.574Z,31.80
2022-11-08T15:24:09.581Z,31.30
2022-11-08T15:29:14.633Z,36.90
2022-11-08T15:34:38.849Z,45.90
2022-11-08T15:39:40.824Z,36.60
2022-11-08T15:45:05.755Z,44.60
2022-11-08T15:50:15.700Z,66.10
2022-11-08T15:55:23.720Z,58.00
2022-11-08T16:00:28.911Z,42.90
2022-11-08T16:05:32.392Z,50.50
2022-11-08T16:10:49.443Z,101.80
2022-11-08T16:15:51.407Z,142.40
2022-11-08T16:20:53.593Z,144.60
2022-11-08T16:25:57.102Z,98.30
2022-11-08T16:30:58.980Z,122.50
2022-11-08T16:36:03.342Z,143.80
2022-11-08T16:41:06.218Z,104.20
2022-11-08T16:46:08.147Z,75.50
2022-11-08T16:51:20.314Z,54.60
2022-11-08T16:56:22.457Z,108.70
2022-11-08T17:01:34.525Z,194.20
2022-11-08T17:06:36.531Z,90.10
2022-11-08T17:11:39.829Z,98.80
2022-11-08T17:16:41.942Z,103.30
2022-11-08T17:21:45.414Z,153.10
2022-11-08T17:26:47.897Z,73.80
2022-11-08T17:31:49.979Z,83.00
2022-11-08T17:36:53.028Z,79.00
2022-11-08T17:41:54.933Z,72.10
2022-11-08T17:46:56.836Z,74.20
2022-11-08T17:51:58.765Z,68.70
2022-11-08T17:57:00.698Z,62.30
2022-11-08T18:02:03.412Z,70.60
2022-11-08T18:07:06.243Z,70.60
2022-11-08T18:12:08.579Z,76.00
2022-11-08T18:17:10.453Z,92.20
2022-11-08T18:22:12.332Z,78.70
2022-11-08T18:27:14.208Z,73.50
2022-11-08T18:32:16.085Z,84.80
2022-11-08T18:37:17.961Z,297.10
2022-11-08T18:42:19.758Z,235.20
2022-11-08T18:47:21.531Z,153.00
2022-11-08T18:52:23.391Z,146.90
2022-11-08T18:57:25.178Z,116.10
2022-11-08T19:02:27.045Z,142.20
2022-11-08T19:07:29.436Z,117.10
2022-11-08T19:12:31.515Z,94.50
2022-11-08T19:17:35.442Z,90.00
2022-11-08T19:22:37.841Z,79.40
2022-11-08T19:27:39.636Z,67.10
2022-11-08T19:32:41.396Z,59.80
2022-11-08T19:37:44.717Z,54.60
2022-11-08T19:42:46.564Z,56.80
2022-11-08T19:47:50.698Z,55.60
2022-11-08T19:52:52.578Z,63.40
2022-11-08T19:57:54.351Z,78.80
2022-11-08T20:02:56.227Z,92.10
2022-11-08T20:07:58.116Z,81.80
2022-11-08T20:13:01.377Z,82.60
2022-11-08T20:18:03.401Z,83.20
2022-11-08T20:23:05.997Z,78.80
2022-11-08T20:28:07.761Z,62.80
2022-11-08T20:33:09.645Z,60.20
2022-11-08T20:38:11.766Z,54.80
2022-11-08T20:43:13.596Z,57.70
2022-11-08T20:48:15.600Z,57.00
2022-11-08T20:53:17.660Z,56.30
2022-11-08T20:58:19.785Z,59.70
2022-11-08T21:03:23.288Z,57.40
2022-11-08T21:08:58.461Z,58.50
2022-11-08T21:13:48.029Z,50.60
2022-11-08T21:18:49.883Z,47.70
2022-11-08T21:23:52.171Z,48.80
2022-11-08T21:28:54.661Z,43.80
2022-11-08T21:33:56.597Z,48.60
2022-11-08T21:38:58.520Z,45.80
2022-11-08T21:44:00.505Z,53.00
2022-11-08T21:49:02.576Z,55.50
2022-11-08T21:54:05.181Z,61.40
2022-11-08T21:59:07.046Z,59.40
2022-11-08T22:04:08.827Z,56.60
2022-11-08T22:09:11.231Z,62.50
2022-11-08T22:14:13.103Z,54.80
2022-11-08T22:19:15.329Z,47.00
2022-11-08T22:24:21.921Z,50.80
2022-11-08T22:29:24.049Z,52.00
2022-11-08T22:34:27.365Z,57.10
2022-11-08T22:39:29.242Z,66.10
2022-11-08T22:44:31.174Z,54.70
2022-11-08T22:49:33.102Z,52.40
2022-11-08T22:54:35.075Z,52.50
2022-11-08T22:59:36.852Z,53.50
2022-11-08T23:04:38.628Z,51.50
2022-11-08T23:09:40.397Z,54.00
2022-11-08T23:15:01.022Z,51.00
2022-11-08T23:20:21.635Z,53.80
2022-11-08T23:25:23.518Z,51.40
2022-11-08T23:30:43.719Z,44.70
2022-11-08T23:36:05.567Z,49.70
2022-11-08T23:41:26.384Z,52.10
2022-11-08T23:46:28.265Z,46.20
2022-11-08T23:51:31.082Z,55.30
2022-11-08T23:56:33.129Z,43.20
